createdAt,value
2022-12-06T00:00:00.840Z,96122.56
2022-12-06T00:02:28.035Z,96129.56
2022-12-06T00:04:55.096Z,96128.13
2022-12-06T00:07:22.055Z,96126.53
2022-12-06T00:09:49.035Z,96125.75
2022-12-06T00:12:16.031Z,96132.16
2022-12-06T00:14:42.934Z,96125.34
2022-12-06T00:17:09.957Z,96123.16
2022-12-06T00:19:37.043Z,96124.16
2022-12-06T00:22:04.035Z,96115.56
2022-12-06T00:24:31.214Z,96115.56
2022-12-06T00:26:58.194Z,96113.78
2022-12-06T00:29:25.278Z,96107.38
2022-12-06T00:31:52.423Z,96110.78
2022-12-06T00:34:19.548Z,96105.00
2022-12-06T00:36:46.550Z,96105.78
2022-12-06T00:39:15.975Z,96115.78
2022-12-06T00:41:43.814Z,96115.19
2022-12-06T00:44:11.525Z,96120.38
2022-12-06T00:46:38.962Z,96107.00
2022-12-06T00:49:07.434Z,96115.59
2022-12-06T00:51:35.965Z,96119.59
2022-12-06T00:54:03.333Z,96114.41
2022-12-06T00:56:30.564Z,96111.81
2022-12-06T00:58:58.154Z,96113.00
2022-12-06T01:01:28.154Z,96108.63
2022-12-06T01:04:00.155Z,96120.22
2022-12-06T01:06:30.537Z,96134.41
2022-12-06T01:09:00.134Z,96133.00
2022-12-06T01:11:28.475Z,96135.19
2022-12-06T01:13:55.616Z,96134.59
2022-12-06T01:16:25.674Z,96132.41
2022-12-06T01:18:59.440Z,96136.41
2022-12-06T01:21:27.597Z,96122.44
2022-12-06T01:23:54.716Z,96135.81
2022-12-06T01:26:33.615Z,96135.38
2022-12-06T01:29:01.434Z,96126.00
2022-12-06T01:31:35.481Z,96133.00
2022-12-06T01:34:02.834Z,96124.41
2022-12-06T01:36:30.044Z,96132.41
2022-12-06T01:38:58.762Z,96135.81
2022-12-06T01:41:27.674Z,96133.00
2022-12-06T01:43:55.556Z,96135.78
2022-12-06T01:46:43.300Z,96134.19
2022-12-06T01:49:13.356Z,96129.03
2022-12-06T01:51:45.383Z,96137.78
2022-12-06T01:54:15.095Z,96131.81
2022-12-06T01:56:42.615Z,96135.38
2022-12-06T01:59:11.897Z,96134.16
2022-12-06T02:01:40.480Z,96126.63
2022-12-06T02:04:08.596Z,96132.19
2022-12-06T02:06:35.739Z,96132.97
2022-12-06T02:09:06.130Z,96125.63
2022-12-06T02:11:35.372Z,96124.22
2022-12-06T02:14:05.943Z,96108.69
2022-12-06T02:16:57.569Z,96112.69
2022-12-06T02:19:30.415Z,96102.31
2022-12-06T02:22:31.035Z,96104.69
2022-12-06T02:25:19.675Z,96103.31
2022-12-06T02:28:13.814Z,96098.31
2022-12-06T02:31:02.808Z,96096.34
2022-12-06T02:33:49.535Z,96093.56
2022-12-06T02:36:31.294Z,96082.41
2022-12-06T02:39:22.615Z,96082.16
2022-12-06T02:42:27.316Z,96077.00
2022-12-06T02:44:58.714Z,96078.41
2022-12-06T02:47:30.814Z,96090.34
2022-12-06T02:50:00.700Z,96084.75
2022-12-06T02:52:28.914Z,96082.16
2022-12-06T02:54:59.535Z,96083.75
2022-12-06T02:57:48.317Z,96080.78
2022-12-06T03:00:53.375Z,96081.19
2022-12-06T03:03:38.402Z,96091.16
2022-12-06T03:06:33.125Z,96081.97
2022-12-06T03:09:25.735Z,96089.56
2022-12-06T03:12:17.474Z,96095.53
2022-12-06T03:15:00.810Z,96086.75
2022-12-06T03:17:37.075Z,96087.16
2022-12-06T03:20:10.415Z,96098.69
2022-12-06T03:22:42.787Z,96102.50
2022-12-06T03:25:11.214Z,96103.06
2022-12-06T03:27:41.416Z,96109.47
2022-12-06T03:30:12.684Z,96117.00
2022-12-06T03:32:44.257Z,96118.00
2022-12-06T03:35:15.175Z,96127.16
2022-12-06T03:37:47.836Z,96127.16
2022-12-06T03:40:21.682Z,96125.56
2022-12-06T03:42:49.817Z,96121.56
2022-12-06T03:45:17.647Z,96124.38
2022-12-06T03:47:57.595Z,96122.97
2022-12-06T03:50:33.974Z,96133.13
2022-12-06T03:53:01.895Z,96134.91
2022-12-06T03:55:28.936Z,96128.50
2022-12-06T03:57:55.956Z,96127.13
2022-12-06T04:00:22.997Z,96132.50
2022-12-06T04:02:50.044Z,96135.84
2022-12-06T04:05:17.195Z,96141.84
2022-12-06T04:07:44.327Z,96140.22
2022-12-06T04:10:11.662Z,96134.44
2022-12-06T04:12:57.215Z,96148.78
2022-12-06T04:15:24.295Z,96147.56
2022-12-06T04:18:10.156Z,96156.69
2022-12-06T04:21:01.057Z,96159.41
2022-12-06T04:23:29.264Z,96157.34
2022-12-06T04:25:56.316Z,96160.13
2022-12-06T04:28:42.115Z,96166.09
2022-12-06T04:31:28.008Z,96173.50
2022-12-06T04:34:13.842Z,96169.13
2022-12-06T04:37:00.556Z,96165.78
2022-12-06T04:39:27.975Z,96163.66
2022-12-06T04:42:13.755Z,96162.09
2022-12-06T04:44:49.221Z,96160.50
2022-12-06T04:47:17.763Z,96159.72
2022-12-06T04:49:45.055Z,96161.75
2022-12-06T04:52:12.303Z,96162.75
2022-12-06T04:54:39.788Z,96161.78
2022-12-06T04:57:11.797Z,96165.19
2022-12-06T04:59:40.938Z,96159.63
2022-12-06T05:02:10.295Z,96171.56
2022-12-06T05:04:37.377Z,96180.38
2022-12-06T05:07:04.848Z,96173.00
2022-12-06T05:09:32.003Z,96181.19
2022-12-06T05:11:58.935Z,96173.00
2022-12-06T05:14:25.854Z,96181.19
2022-12-06T05:16:53.376Z,96177.63
2022-12-06T05:19:20.399Z,96185.78
2022-12-06T05:21:47.416Z,96175.66
2022-12-06T05:24:14.585Z,96178.44
2022-12-06T05:26:41.602Z,96189.41
2022-12-06T05:29:09.407Z,96184.81
2022-12-06T05:31:36.536Z,96186.59
2022-12-06T05:34:03.624Z,96189.19
2022-12-06T05:36:30.598Z,96188.81
2022-12-06T05:38:57.845Z,96191.81
2022-12-06T05:41:25.125Z,96185.41
2022-12-06T05:43:52.145Z,96197.19
2022-12-06T05:46:19.259Z,96183.44
2022-12-06T05:48:46.402Z,96191.41
2022-12-06T05:51:13.427Z,96192.00
2022-12-06T05:53:41.607Z,96183.81
2022-12-06T05:56:11.075Z,96172.88
2022-12-06T05:58:38.496Z,96177.06
2022-12-06T06:01:07.566Z,96181.03
2022-12-06T06:03:35.340Z,96176.06
2022-12-06T06:06:03.708Z,96166.47
2022-12-06T06:08:31.698Z,96166.91
2022-12-06T06:10:59.226Z,96164.88
2022-12-06T06:13:26.234Z,96152.16
2022-12-06T06:15:53.226Z,96162.50
2022-12-06T06:18:20.597Z,96158.72
2022-12-06T06:20:55.376Z,96169.06
2022-12-06T06:23:22.576Z,96170.69
2022-12-06T06:25:49.574Z,96170.06
2022-12-06T06:28:17.535Z,96166.47
2022-12-06T06:30:44.996Z,96169.50
2022-12-06T06:33:12.044Z,96165.50
2022-12-06T06:35:39.499Z,96169.69
2022-12-06T06:38:07.275Z,96172.66
2022-12-06T06:40:35.102Z,96169.06
2022-12-06T06:43:23.135Z,96173.06
2022-12-06T06:45:54.066Z,96172.03
2022-12-06T06:48:21.946Z,96166.84
2022-12-06T06:50:53.880Z,96171.66
2022-12-06T06:53:22.700Z,96170.25
2022-12-06T06:55:49.649Z,96166.28
2022-12-06T06:58:16.647Z,96176.22
2022-12-06T07:00:44.065Z,96177.63
2022-12-06T07:03:16.163Z,96176.81
2022-12-06T07:05:45.804Z,96189.56
2022-12-06T07:08:13.289Z,96194.34
2022-12-06T07:10:40.435Z,96189.19
2022-12-06T07:13:07.356Z,96194.97
2022-12-06T07:15:35.525Z,96189.97
2022-12-06T07:18:02.506Z,96196.75
2022-12-06T07:20:29.437Z,96187.59
2022-12-06T07:22:57.075Z,96184.81
2022-12-06T07:25:24.075Z,96192.56
2022-12-06T07:27:51.098Z,96198.38
2022-12-06T07:30:21.573Z,96195.59
2022-12-06T07:32:51.281Z,96191.00
2022-12-06T07:35:18.267Z,96182.22
2022-12-06T07:37:46.416Z,96197.97
2022-12-06T07:40:15.005Z,96191.03
2022-12-06T07:43:00.693Z,96192.19
2022-12-06T07:45:27.924Z,96191.22
2022-12-06T07:47:54.945Z,96192.22
2022-12-06T07:50:22.895Z,96191.22
2022-12-06T07:52:50.915Z,96188.81
2022-12-06T07:55:18.462Z,96188.44
2022-12-06T07:57:45.405Z,96191.59
2022-12-06T08:00:15.794Z,96186.41
2022-12-06T08:02:43.315Z,96187.03
2022-12-06T08:05:10.845Z,96185.03
2022-12-06T08:07:37.978Z,96187.22
2022-12-06T08:10:05.754Z,96188.44
2022-12-06T08:12:32.955Z,96181.84
2022-12-06T08:15:00.374Z,96185.66
2022-12-06T08:17:28.017Z,96184.03
2022-12-06T08:19:54.946Z,96178.06
2022-12-06T08:22:21.980Z,96176.88
2022-12-06T08:24:49.016Z,96182.25
2022-12-06T08:27:15.914Z,96183.25
2022-12-06T08:29:45.411Z,96173.88
2022-12-06T08:32:12.407Z,96169.69
2022-12-06T08:34:39.443Z,96192.63
2022-12-06T08:37:06.435Z,96180.47
2022-12-06T08:39:33.350Z,96188.41
2022-12-06T08:42:00.367Z,96194.03
2022-12-06T08:44:28.527Z,96188.03
2022-12-06T08:46:56.199Z,96189.22
2022-12-06T08:49:24.516Z,96189.22
2022-12-06T08:51:52.305Z,96191.00
2022-12-06T08:54:23.044Z,96195.41
2022-12-06T08:56:51.016Z,96204.81
2022-12-06T08:59:18.913Z,96201.19
2022-12-06T09:01:46.220Z,96200.78
2022-12-06T09:04:13.604Z,96207.19
2022-12-06T09:06:42.083Z,96211.38
2022-12-06T09:09:10.576Z,96208.97
2022-12-06T09:11:38.315Z,96211.94
2022-12-06T09:14:05.765Z,96206.16
2022-12-06T09:16:32.873Z,96207.75
2022-12-06T09:18:59.894Z,96197.09
2022-12-06T09:21:30.771Z,96201.84
2022-12-06T09:23:58.677Z,96205.56
2022-12-06T09:26:26.565Z,96209.22
2022-12-06T09:28:56.055Z,96202.56
2022-12-06T09:31:24.008Z,96204.53
2022-12-06T09:33:51.645Z,96206.47
2022-12-06T09:36:25.352Z,96193.72
2022-12-06T09:39:18.475Z,96194.75
2022-12-06T09:42:04.175Z,96199.16
2022-12-06T09:44:58.734Z,96195.16
2022-12-06T09:47:44.076Z,96199.34
2022-12-06T09:50:40.306Z,96195.16
2022-12-06T09:53:10.063Z,96187.38
2022-12-06T09:56:00.783Z,96183.78
2022-12-06T09:59:09.836Z,96193.47
2022-12-06T10:01:42.979Z,96187.06
2022-12-06T10:04:28.577Z,96185.78
2022-12-06T10:06:58.405Z,96182.47
2022-12-06T10:09:37.117Z,96188.53
2022-12-06T10:12:07.103Z,96182.09
2022-12-06T10:14:50.336Z,96181.47
2022-12-06T10:17:44.684Z,96176.03
2022-12-06T10:20:45.805Z,96179.03
2022-12-06T10:23:22.559Z,96176.34
2022-12-06T10:26:12.615Z,96170.72
2022-12-06T10:28:52.655Z,96169.28
2022-12-06T10:31:23.812Z,96170.19
2022-12-06T10:34:19.835Z,96159.06
2022-12-06T10:37:00.805Z,96155.47
2022-12-06T10:39:45.983Z,96150.03
2022-12-06T10:42:54.106Z,96149.34
2022-12-06T10:45:56.565Z,96142.28
2022-12-06T10:48:47.357Z,96136.31
2022-12-06T10:51:21.490Z,96143.06
2022-12-06T10:53:56.794Z,96140.25
2022-12-06T10:56:30.112Z,96138.88
2022-12-06T10:59:03.897Z,96132.44
2022-12-06T11:01:41.741Z,96127.06
2022-12-06T11:04:23.315Z,96120.94
2022-12-06T11:06:55.066Z,96117.03
2022-12-06T11:09:34.595Z,96112.22
2022-12-06T11:12:02.028Z,96108.38
2022-12-06T11:14:48.116Z,96098.13
2022-12-06T11:17:26.763Z,96096.59
2022-12-06T11:20:15.305Z,96097.72
2022-12-06T11:23:06.237Z,96100.13
2022-12-06T11:26:02.066Z,96094.34
2022-12-06T11:28:40.583Z,96092.81
2022-12-06T11:31:28.601Z,96094.59
2022-12-06T11:33:55.915Z,96083.06
2022-12-06T11:36:24.818Z,96078.63
2022-12-06T11:38:52.970Z,96073.66
2022-12-06T11:41:25.543Z,96077.16
2022-12-06T11:43:54.379Z,96066.03
2022-12-06T11:46:23.380Z,96062.25
2022-12-06T11:48:51.232Z,96061.97
2022-12-06T11:51:23.160Z,96068.53
2022-12-06T11:54:19.254Z,96061.84
2022-12-06T11:56:47.035Z,96072.28
2022-12-06T11:59:28.772Z,96060.84
2022-12-06T12:13:42.176Z,96053.69
2022-12-06T12:16:23.622Z,96057.50
2022-12-06T12:19:01.637Z,96055.22
2022-12-06T12:21:35.979Z,96049.28
2022-12-06T12:24:05.274Z,96043.97
2022-12-06T12:26:41.800Z,96043.03
2022-12-06T12:29:08.727Z,96043.84
2022-12-06T12:31:52.786Z,96043.72
2022-12-06T12:34:28.574Z,96044.19
2022-12-06T12:37:01.054Z,96040.47
2022-12-06T12:39:41.410Z,96044.38
2022-12-06T12:42:33.194Z,96043.44
2022-12-06T12:45:03.500Z,96041.06
2022-12-06T12:47:32.095Z,96042.78
2022-12-06T12:50:18.804Z,96043.44
2022-12-06T12:52:46.134Z,96036.28
2022-12-06T12:55:26.976Z,96042.75
2022-12-06T12:58:00.536Z,96034.06
2022-12-06T13:00:37.505Z,96025.56
2022-12-06T13:03:34.844Z,96028.16
2022-12-06T13:06:00.184Z,96030.31
2022-12-06T13:08:34.888Z,96023.91
2022-12-06T13:11:04.667Z,96018.41
2022-12-06T13:13:40.496Z,96018.28
2022-12-06T13:16:13.588Z,96019.94
2022-12-06T13:18:51.254Z,96021.28
2022-12-06T13:21:24.553Z,96008.31
2022-12-06T13:23:57.252Z,96007.31
2022-12-06T13:26:34.135Z,95999.00
2022-12-06T13:29:08.519Z,96009.34
2022-12-06T13:31:40.235Z,96002.53
2022-12-06T13:34:14.235Z,95997.16
2022-12-06T13:36:41.539Z,95999.16
2022-12-06T13:39:30.000Z,96003.94
2022-12-06T13:42:20.549Z,96005.81
2022-12-06T13:44:50.314Z,95998.63
2022-12-06T13:47:29.516Z,96002.34
2022-12-06T13:50:04.693Z,96007.09
2022-12-06T13:52:43.808Z,96007.81
2022-12-06T13:55:26.153Z,96006.69
2022-12-06T13:57:56.001Z,96015.22
2022-12-06T14:00:29.351Z,96015.41
2022-12-06T14:03:03.958Z,96008.81
2022-12-06T14:08:39.797Z,96014.31
2022-12-06T14:11:06.815Z,96023.63
2022-12-06T14:13:33.818Z,96015.78
2022-12-06T14:16:01.135Z,96025.34
2022-12-06T14:18:29.783Z,96024.41
2022-12-06T14:20:58.243Z,96024.47
2022-12-06T14:23:26.834Z,96036.66
2022-12-06T14:26:22.216Z,96032.84
2022-12-06T14:28:50.637Z,96037.31
2022-12-06T14:31:40.644Z,96040.19
2022-12-06T14:34:24.977Z,96041.31
2022-12-06T14:36:52.215Z,96039.97
2022-12-06T14:39:23.136Z,96043.03
2022-12-06T14:42:24.421Z,96041.91
2022-12-06T14:45:02.035Z,96047.41
2022-12-06T14:47:31.054Z,96049.56
2022-12-06T14:50:19.248Z,96044.88
2022-12-06T14:53:05.515Z,96054.44
2022-12-06T14:55:36.695Z,96055.34
2022-12-06T14:58:16.446Z,96059.84
2022-12-06T15:00:54.937Z,96055.53
2022-12-06T15:03:42.991Z,96061.66
2022-12-06T15:06:22.199Z,96060.47
2022-12-06T15:09:11.036Z,96067.34
2022-12-06T15:11:58.778Z,96067.38
2022-12-06T15:14:39.502Z,96072.53
2022-12-06T15:17:21.956Z,96074.03
2022-12-06T15:19:51.457Z,96072.81
2022-12-06T15:22:24.989Z,96070.69
2022-12-06T15:24:55.539Z,96069.38
2022-12-06T15:27:24.119Z,96076.66
2022-12-06T15:29:51.084Z,96076.09
2022-12-06T15:32:19.577Z,96081.09
2022-12-06T15:34:46.816Z,96086.94
2022-12-06T15:37:38.060Z,96090.75
2022-12-06T15:40:04.485Z,96100.81
2022-12-06T15:42:31.555Z,96094.00
2022-12-06T15:44:58.524Z,96094.25
2022-12-06T15:47:25.487Z,96094.91
2022-12-06T15:49:54.119Z,96091.72
2022-12-06T15:52:23.714Z,96086.56
2022-12-06T15:54:51.356Z,96081.81
2022-12-06T15:57:18.357Z,96070.88
2022-12-06T15:59:45.305Z,96077.53
2022-12-06T16:02:15.801Z,96076.34
2022-12-06T16:04:43.782Z,96078.16
2022-12-06T16:07:10.905Z,96082.19
2022-12-06T16:09:38.420Z,96086.44
2022-12-06T16:12:05.558Z,96084.69
2022-12-06T16:14:32.742Z,96093.88
2022-12-06T16:16:59.777Z,96089.50
2022-12-06T16:19:49.714Z,96096.13
2022-12-06T16:22:16.870Z,96088.16
2022-12-06T16:24:43.804Z,96093.53
2022-12-06T16:27:10.756Z,96090.56
2022-12-06T16:29:37.788Z,96087.81
2022-12-06T16:32:04.807Z,96078.63
2022-12-06T16:34:31.735Z,96090.44
2022-12-06T16:37:00.234Z,96084.84
2022-12-06T16:39:28.207Z,96082.44
2022-12-06T16:41:55.253Z,96078.06
2022-12-06T16:44:22.515Z,96079.84
2022-12-06T16:46:49.860Z,96079.06
2022-12-06T16:52:11.965Z,96088.84
2022-12-06T16:54:42.520Z,96081.50
2022-12-06T16:57:11.935Z,96085.91
2022-12-06T16:59:39.137Z,96086.09
2022-12-06T17:02:26.690Z,96077.09
2022-12-06T17:04:54.659Z,96084.31
2022-12-06T17:07:21.612Z,96088.09
2022-12-06T17:09:48.650Z,96083.53
2022-12-06T17:12:15.697Z,96091.09
2022-12-06T17:14:43.144Z,96092.91
2022-12-06T17:17:18.819Z,96092.13
2022-12-06T17:19:46.067Z,96088.56
2022-12-06T17:22:16.479Z,96092.34
2022-12-06T17:24:43.912Z,96098.50
2022-12-06T17:27:14.786Z,96098.31
2022-12-06T17:29:43.722Z,96089.75
2022-12-06T17:32:10.944Z,96092.53
2022-12-06T17:34:38.117Z,96094.91
2022-12-06T17:37:06.341Z,96090.50
2022-12-06T17:39:33.401Z,96095.06
2022-12-06T17:42:19.211Z,96098.03
2022-12-06T17:44:46.259Z,96093.25
2022-12-06T17:47:13.265Z,96097.84
2022-12-06T17:49:40.508Z,96101.41
2022-12-06T17:52:07.865Z,96099.63
2022-12-06T17:54:34.897Z,96099.78
2022-12-06T17:57:01.887Z,96096.59
2022-12-06T17:59:33.168Z,96104.50
2022-12-06T18:02:20.061Z,96102.09
2022-12-06T18:04:50.989Z,96109.44
2022-12-06T18:07:23.613Z,96114.38
2022-12-06T18:09:51.085Z,96111.22
2022-12-06T18:12:18.147Z,96112.38
2022-12-06T18:14:45.665Z,96108.81
2022-12-06T18:17:13.042Z,96116.94
2022-12-06T18:19:41.042Z,96114.97
2022-12-06T18:22:08.178Z,96105.59
2022-12-06T18:24:36.333Z,96114.75
2022-12-06T18:27:04.154Z,96112.16
2022-12-06T18:29:31.218Z,96118.50
2022-12-06T18:31:58.389Z,96115.53
2022-12-06T18:34:25.475Z,96108.75
2022-12-06T18:36:52.529Z,96113.50
2022-12-06T18:39:26.674Z,96111.53
2022-12-06T18:41:54.469Z,96112.47
2022-12-06T18:44:22.088Z,96116.66
2022-12-06T18:46:49.166Z,96114.28
2022-12-06T18:49:16.343Z,96115.72
2022-12-06T18:51:45.204Z,96108.53
2022-12-06T18:54:14.361Z,96114.47
2022-12-06T18:56:42.625Z,96113.09
2022-12-06T18:59:11.320Z,96108.31
2022-12-06T19:01:39.603Z,96107.75
2022-12-06T19:04:08.794Z,96113.34
2022-12-06T19:06:37.803Z,96102.63
2022-12-06T19:09:08.065Z,96107.56
2022-12-06T19:11:43.183Z,96109.94
2022-12-06T19:14:10.641Z,96100.63
2022-12-06T19:16:48.894Z,96101.59
2022-12-06T19:19:23.096Z,96103.00
2022-12-06T19:21:52.472Z,96099.41
2022-12-06T19:24:23.045Z,96101.81
2022-12-06T19:26:54.400Z,96102.41
2022-12-06T19:29:22.366Z,96092.13
2022-12-06T19:31:49.716Z,96097.28
2022-12-06T19:34:26.808Z,96084.94
2022-12-06T19:36:56.079Z,96086.16
2022-12-06T19:39:24.705Z,96093.94
2022-12-06T19:42:10.675Z,96090.53
2022-12-06T19:44:38.416Z,96091.34
2022-12-06T19:47:05.860Z,96080.59
2022-12-06T19:49:35.053Z,96078.00
2022-12-06T19:52:02.890Z,96083.59
2022-12-06T19:54:32.676Z,96079.41
2022-12-06T19:57:01.339Z,96082.59
2022-12-06T19:59:31.731Z,96078.41
2022-12-06T20:01:59.720Z,96076.59
2022-12-06T20:04:31.478Z,96070.63
2022-12-06T20:06:59.388Z,96077.81
2022-12-06T20:09:28.776Z,96069.84
2022-12-06T20:12:04.047Z,96072.44
2022-12-06T20:14:36.795Z,96072.25
2022-12-06T20:17:06.825Z,96070.66
2022-12-06T20:19:34.772Z,96076.63
2022-12-06T20:22:01.966Z,96065.06
2022-12-06T20:24:29.447Z,96066.13
2022-12-06T20:26:56.839Z,96062.72
2022-12-06T20:29:27.191Z,96069.47
2022-12-06T20:31:58.087Z,96071.47
2022-12-06T20:34:26.192Z,96065.91
2022-12-06T20:36:53.115Z,96066.69
2022-12-06T20:39:25.957Z,96065.69
2022-12-06T20:41:54.005Z,96062.91
2022-12-06T20:44:21.770Z,96064.69
2022-12-06T20:46:50.061Z,96063.28
2022-12-06T20:49:20.947Z,96070.03
2022-12-06T20:51:52.973Z,96067.00
2022-12-06T20:54:21.220Z,96065.03
2022-12-06T20:56:51.916Z,96068.22
2022-12-06T20:59:19.482Z,96067.63
2022-12-06T21:01:46.806Z,96068.59
2022-12-06T21:04:14.218Z,96063.69
2022-12-06T21:06:41.586Z,96065.06
2022-12-06T21:09:08.693Z,96063.69
2022-12-06T21:11:35.744Z,96070.06
2022-12-06T21:14:04.106Z,96070.50
2022-12-06T21:16:33.253Z,96071.06
2022-12-06T21:19:06.410Z,96071.31
2022-12-06T21:21:35.708Z,96074.28
2022-12-06T21:24:05.292Z,96063.13
2022-12-06T21:26:32.865Z,96059.56
2022-12-06T21:29:00.039Z,96072.50
2022-12-06T21:31:29.076Z,96060.19
2022-12-06T21:33:57.200Z,96064.94
2022-12-06T21:36:25.357Z,96063.94
2022-12-06T21:38:52.861Z,96070.91
2022-12-06T21:41:20.627Z,96068.31
2022-12-06T21:43:48.093Z,96071.72
2022-12-06T21:46:21.355Z,96070.34
2022-12-06T21:48:55.857Z,96067.94
2022-12-06T21:51:24.278Z,96065.19
2022-12-06T21:53:51.916Z,96059.56
2022-12-06T21:56:21.935Z,96062.59
2022-12-06T21:58:49.458Z,96049.66
2022-12-06T22:01:19.479Z,96053.22
2022-12-06T22:03:49.983Z,96055.81
2022-12-06T22:06:17.649Z,96046.44
2022-12-06T22:08:45.956Z,96045.06
2022-12-06T22:11:17.786Z,96040.91
2022-12-06T22:13:45.837Z,96044.88
2022-12-06T22:16:13.581Z,96048.88
2022-12-06T22:18:45.438Z,96045.28
2022-12-06T22:21:21.335Z,96045.28
2022-12-06T22:23:48.685Z,96049.47
2022-12-06T22:26:18.448Z,96047.66
2022-12-06T22:28:45.946Z,96038.50
2022-12-06T22:31:15.717Z,96055.22
2022-12-06T22:33:42.867Z,96046.66
2022-12-06T22:36:11.566Z,96046.66
2022-12-06T22:38:39.427Z,96041.66
2022-12-06T22:41:07.039Z,96046.25
2022-12-06T22:43:35.122Z,96045.47
2022-12-06T22:46:10.861Z,96035.13
2022-12-06T22:48:38.919Z,96035.09
2022-12-06T22:51:25.583Z,96040.84
2022-12-06T22:54:01.164Z,96042.25
2022-12-06T22:56:29.275Z,96036.09
2022-12-06T22:58:57.915Z,96037.69
2022-12-06T23:01:27.975Z,96036.47
2022-12-06T23:03:55.747Z,96033.09
2022-12-06T23:06:25.122Z,96036.47
2022-12-06T23:08:53.001Z,96035.69
2022-12-06T23:11:32.068Z,96031.69
2022-12-06T23:13:59.376Z,96026.28
2022-12-06T23:16:28.468Z,96022.09
2022-12-06T23:18:56.238Z,96019.72
2022-12-06T23:21:28.994Z,96012.97
2022-12-06T23:24:00.847Z,96022.09
2022-12-06T23:26:30.715Z,96014.13
2022-12-06T23:28:57.856Z,96018.09
2022-12-06T23:31:27.976Z,96011.09
2022-12-06T23:34:14.475Z,96012.09
2022-12-06T23:36:42.075Z,96016.66
2022-12-06T23:39:10.157Z,96015.69
2022-12-06T23:41:37.218Z,96003.31
2022-12-06T23:44:05.785Z,95997.75
2022-12-06T23:46:35.641Z,95997.13
2022-12-06T23:49:03.453Z,96000.28
2022-12-06T23:51:34.499Z,96000.84
2022-12-06T23:54:03.400Z,95993.69
2022-12-06T23:56:32.837Z,95995.06
2022-12-06T23:59:01.142Z,95997.88
